Etusivu
METAR-TAF:

METAR-TAF

Lentoasemat :

Larnaka, Kypros

Larnakan kansainvälinen lentoasema

Leveyspiiri: 34-53N, Pituuspiiri: 033-38E, korkeus merenpinnasta: 2 m

Tämänhetkinen sää

Tämä raportti tehtiin 24 minuuttia sitten, kello 21.30 UTC
Tuuli 6 kn luoteesta
Lämpötila 14°C
Kosteus 72%
Ilmanpaine 1018 hPa
Näkyvyys 10 km tai enemmän
ei pilviä alle 1500 m:ssä eikä cumulonimbus-pilviä

METAR: LCLK 122130Z 32006KT CAVOK 14/09 Q1018 NOSIG

Aika: 23:54 (21:54 UTC)

Sääennuste

Tämä raportti tehtiin 4 tuntia ja 24 minuuttia sitten, kello 17.30 UTC
Ennuste voimassa 12. päivästä klo 18 UTC - 13. päivään klo 18 UTC
Tuuli 9 kn pohjoisen/luoteesta
Näkyvyys 10 km tai enemmän
Muutamia pilviä 3000 ft:n korkeudessa

TAF: LCLK 121730Z 1218/1318 33009KT 9999 FEW030

Säähavainnot ja -ennusteet yli 4000 lentoasemalta (METAR- ja TAF-raportit).

Käytössä olevat sääasemat on merkitty karttaan keltaisilla ja punaisilla pisteillä.

Aseta hiiri pisteen päälle nähdäksesi sääaseman nimen.

Klikkaa sitten nähdäksesi säähavainnot ja -ennusteet.

Kartan vaihtaminen: klikkaa mustalla rastilla varustettuja vihreitä pisteitä, niin voit zoomata sisään; viivalla varustettua vihreää pistettä, niin voit zoomata ulos tai vihreitä nuolia, niin pääset viereisille kartoille.


METAR-TAF: